createdAt,value
2018-05-08T00:00:09.818Z,10.90
2018-05-08T00:01:09.815Z,10.60
2018-05-08T00:02:09.811Z,10.80
2018-05-08T00:03:09.810Z,10.10
2018-05-08T00:04:09.820Z,10.40
2018-05-08T00:05:09.812Z,10.30
2018-05-08T00:06:09.807Z,10.90
2018-05-08T00:07:09.806Z,10.60
2018-05-08T00:08:09.805Z,10.30
2018-05-08T00:09:09.803Z,10.10
2018-05-08T00:10:09.806Z,10.20
2018-05-08T00:11:09.806Z,10.20
2018-05-08T00:12:09.805Z,10.50
2018-05-08T00:13:09.803Z,10.60
2018-05-08T00:14:09.798Z,10.40
2018-05-08T00:15:09.796Z,10.60
2018-05-08T00:16:09.796Z,10.60
2018-05-08T00:17:09.793Z,10.30
2018-05-08T00:18:09.796Z,10.60
2018-05-08T00:19:09.795Z,10.10
2018-05-08T00:20:09.791Z,10.60
2018-05-08T00:21:09.793Z,9.90
2018-05-08T00:22:09.791Z,11.40
2018-05-08T00:23:09.790Z,12.20
2018-05-08T00:24:09.790Z,10.80
2018-05-08T00:25:09.788Z,11.60
2018-05-08T00:26:09.785Z,10.80
2018-05-08T00:27:09.780Z,10.50
2018-05-08T00:28:09.779Z,10.70
2018-05-08T00:29:09.778Z,11.30
2018-05-08T00:30:09.781Z,11.10
2018-05-08T00:31:09.779Z,11.40
2018-05-08T00:32:09.777Z,11.50
2018-05-08T00:33:09.804Z,11.20
2018-05-08T00:34:09.769Z,11.50
2018-05-08T00:35:09.770Z,12.60
2018-05-08T00:36:09.771Z,10.50
2018-05-08T00:37:09.769Z,11.60
2018-05-08T00:38:09.764Z,11.60
2018-05-08T00:39:09.762Z,11.30
2018-05-08T00:40:09.762Z,11.60
2018-05-08T00:41:09.761Z,11.30
2018-05-08T00:42:09.761Z,12.50
2018-05-08T00:43:09.761Z,11.90
2018-05-08T00:44:09.758Z,11.70
2018-05-08T00:45:09.756Z,11.80
2018-05-08T00:46:09.751Z,11.80
2018-05-08T00:47:09.750Z,12.10
2018-05-08T00:48:09.747Z,11.40
2018-05-08T00:49:09.745Z,11.90
2018-05-08T00:50:09.751Z,11.00
2018-05-08T00:51:09.749Z,12.00
2018-05-08T00:52:09.744Z,10.60
2018-05-08T00:53:09.737Z,11.50
2018-05-08T00:54:09.741Z,11.30
2018-05-08T00:55:09.745Z,11.00
2018-05-08T00:56:09.737Z,11.30
2018-05-08T00:57:09.735Z,11.50
2018-05-08T00:58:09.729Z,12.40
2018-05-08T00:59:09.727Z,12.70
2018-05-08T01:00:09.726Z,10.90
2018-05-08T01:01:09.723Z,10.70
2018-05-08T01:02:09.726Z,10.90
2018-05-08T01:03:09.724Z,10.70
2018-05-08T01:04:09.724Z,11.70
2018-05-08T01:05:09.721Z,11.10
2018-05-08T01:06:09.715Z,10.90
2018-05-08T01:07:09.714Z,11.00
2018-05-08T01:08:09.718Z,10.70
2018-05-08T01:09:09.714Z,10.20
2018-05-08T01:10:09.708Z,10.40
2018-05-08T01:11:09.705Z,10.60
2018-05-08T01:12:09.706Z,10.90
2018-05-08T01:13:09.700Z,10.70
2018-05-08T01:14:09.703Z,10.90
2018-05-08T01:15:09.701Z,10.40
2018-05-08T01:16:09.702Z,10.60
2018-05-08T01:17:09.794Z,10.20
2018-05-08T01:18:09.693Z,10.60
2018-05-08T01:19:09.691Z,10.40
2018-05-08T01:20:09.689Z,11.20
2018-05-08T01:21:09.685Z,11.80
2018-05-08T01:22:09.689Z,11.30
2018-05-08T01:23:09.687Z,10.60
2018-05-08T01:24:09.680Z,10.00
2018-05-08T01:25:09.677Z,10.60
2018-05-08T01:26:09.681Z,10.70
2018-05-08T01:27:09.682Z,10.80
2018-05-08T01:28:09.676Z,11.70
2018-05-08T01:29:09.673Z,10.00
2018-05-08T01:30:09.667Z,12.00
2018-05-08T01:31:09.666Z,11.00
2018-05-08T01:32:09.663Z,10.50
2018-05-08T01:33:09.660Z,10.70
2018-05-08T01:34:09.663Z,10.30
2018-05-08T01:35:09.661Z,10.90
2018-05-08T01:36:09.660Z,10.70
2018-05-08T01:37:09.656Z,11.20
2018-05-08T01:38:09.649Z,10.40
2018-05-08T01:39:09.650Z,10.50
2018-05-08T01:40:09.658Z,10.60
2018-05-08T01:41:09.647Z,10.80
2018-05-08T01:42:09.644Z,10.60
2018-05-08T01:43:09.653Z,10.90
2018-05-08T01:44:09.636Z,11.00
2018-05-08T01:45:09.633Z,11.40
2018-05-08T01:46:09.636Z,10.90
2018-05-08T01:47:09.633Z,10.70
2018-05-08T01:48:09.633Z,11.00
2018-05-08T01:49:09.632Z,11.20
2018-05-08T01:50:09.621Z,12.30
2018-05-08T01:51:09.621Z,10.70
2018-05-08T01:52:09.618Z,11.20
2018-05-08T01:53:09.617Z,10.70
2018-05-08T01:54:09.616Z,10.40
2018-05-08T01:55:09.614Z,11.30
2018-05-08T01:56:09.608Z,11.00
2018-05-08T01:57:09.606Z,11.20
2018-05-08T01:58:09.607Z,11.10
2018-05-08T01:59:09.604Z,11.10
2018-05-08T02:00:09.605Z,11.10
2018-05-08T02:01:09.601Z,10.80
2018-05-08T02:02:09.593Z,12.30
2018-05-08T02:03:09.590Z,13.50
2018-05-08T02:04:09.589Z,11.00
2018-05-08T02:05:09.585Z,11.20
2018-05-08T02:06:09.588Z,11.60
2018-05-08T02:07:09.585Z,11.70
2018-05-08T02:08:09.583Z,11.20
2018-05-08T02:09:09.583Z,11.10
2018-05-08T02:10:09.573Z,11.50
2018-05-08T02:11:09.570Z,10.50
2018-05-08T02:12:09.573Z,10.90
2018-05-08T02:13:09.568Z,11.20
2018-05-08T02:14:09.565Z,10.90
2018-05-08T02:15:09.560Z,10.80
2018-05-08T02:16:09.558Z,12.10
2018-05-08T02:17:09.556Z,10.70
2018-05-08T02:18:09.557Z,10.70
2018-05-08T02:19:09.555Z,10.90
2018-05-08T02:20:09.552Z,10.80
2018-05-08T02:21:09.551Z,10.80
2018-05-08T02:22:09.540Z,10.80
2018-05-08T02:23:09.538Z,11.30
2018-05-08T02:24:09.537Z,10.80
2018-05-08T02:25:09.532Z,11.20
2018-05-08T02:26:09.533Z,12.10
2018-05-08T02:27:09.531Z,10.60
2018-05-08T02:28:09.524Z,11.50
2018-05-08T02:29:09.520Z,10.40
2018-05-08T02:30:09.522Z,10.10
2018-05-08T02:31:09.519Z,10.30
2018-05-08T02:32:09.518Z,10.00
2018-05-08T02:33:09.515Z,10.00
2018-05-08T02:34:09.507Z,10.20
2018-05-08T02:35:09.504Z,9.60
2018-05-08T02:36:09.503Z,10.30
2018-05-08T02:37:09.500Z,9.80
2018-05-08T02:38:09.499Z,10.70
2018-05-08T02:39:09.500Z,10.40
2018-05-08T02:40:09.493Z,10.00
2018-05-08T02:41:09.489Z,10.90
2018-05-08T02:42:09.485Z,10.30
2018-05-08T02:43:09.480Z,10.80
2018-05-08T02:44:09.482Z,10.70
2018-05-08T02:45:09.479Z,10.40
2018-05-08T02:46:09.471Z,10.60
2018-05-08T02:47:09.471Z,10.60
2018-05-08T02:48:09.465Z,10.30
2018-05-08T02:49:09.463Z,10.10
2018-05-08T02:50:09.463Z,10.60
2018-05-08T02:51:09.462Z,11.10
2018-05-08T02:52:09.454Z,9.70
2018-05-08T02:53:09.448Z,10.90
2018-05-08T02:54:09.452Z,10.90
2018-05-08T02:55:09.449Z,10.00
2018-05-08T02:56:09.450Z,10.00
2018-05-08T02:57:09.444Z,10.30
2018-05-08T02:58:09.436Z,10.60
2018-05-08T02:59:09.434Z,10.30
2018-05-08T03:00:09.435Z,9.60
2018-05-08T03:01:09.437Z,10.90
2018-05-08T03:02:09.423Z,11.00
2018-05-08T03:03:09.420Z,13.20
2018-05-08T03:04:09.417Z,10.50
2018-05-08T03:05:09.415Z,10.30
2018-05-08T03:06:09.414Z,10.70
2018-05-08T03:07:09.412Z,10.50
2018-05-08T03:08:09.408Z,10.50
2018-05-08T03:09:09.405Z,10.50
2018-05-08T03:10:09.398Z,9.80
2018-05-08T03:11:09.394Z,10.90
2018-05-08T03:12:09.392Z,10.40
2018-05-08T03:13:09.392Z,10.30
2018-05-08T03:14:09.391Z,10.10
2018-05-08T03:15:09.387Z,13.60
2018-05-08T03:16:09.378Z,10.00
2018-05-08T03:17:09.374Z,10.70
2018-05-08T03:18:09.376Z,10.20
2018-05-08T03:19:09.374Z,10.10
2018-05-08T03:20:09.370Z,10.40
2018-05-08T03:21:09.371Z,10.70
2018-05-08T03:22:09.363Z,10.90
2018-05-08T03:23:09.355Z,9.90
2018-05-08T03:24:09.354Z,10.20
2018-05-08T03:25:09.348Z,10.20
2018-05-08T03:26:09.349Z,10.00
2018-05-08T03:27:09.347Z,10.00
2018-05-08T03:28:09.345Z,10.30
2018-05-08T03:29:09.341Z,10.80
2018-05-08T03:30:09.332Z,10.30
2018-05-08T03:31:09.329Z,10.80
2018-05-08T03:32:09.332Z,10.40
2018-05-08T03:33:09.326Z,10.30
2018-05-08T03:34:09.320Z,10.30
2018-05-08T03:35:09.316Z,10.40
2018-05-08T03:36:09.312Z,10.00
2018-05-08T03:37:09.325Z,10.60
2018-05-08T03:38:09.309Z,10.90
2018-05-08T03:39:09.306Z,10.60
2018-05-08T03:40:09.304Z,10.40
2018-05-08T03:41:09.299Z,10.90
2018-05-08T03:42:09.291Z,10.80
2018-05-08T03:43:09.288Z,11.10
2018-05-08T03:44:09.288Z,11.20
2018-05-08T03:45:09.281Z,10.40
2018-05-08T03:46:09.282Z,10.80
2018-05-08T03:47:09.280Z,10.80
2018-05-08T03:48:09.270Z,11.00
2018-05-08T03:49:09.268Z,11.20
2018-05-08T03:50:09.274Z,11.20
2018-05-08T03:51:09.266Z,10.50
2018-05-08T03:52:09.260Z,11.30
2018-05-08T03:53:09.258Z,10.70
2018-05-08T03:54:09.250Z,10.70
2018-05-08T03:55:09.244Z,10.90
2018-05-08T03:56:09.242Z,11.50
2018-05-08T03:57:09.239Z,10.90
2018-05-08T03:58:09.240Z,10.70
2018-05-08T03:59:09.236Z,10.80
2018-05-08T04:00:09.231Z,11.00
2018-05-08T04:01:09.228Z,11.00
2018-05-08T04:02:09.220Z,11.30
2018-05-08T04:03:09.216Z,11.70
2018-05-08T04:04:09.218Z,11.10
2018-05-08T04:05:09.213Z,10.90
2018-05-08T04:06:09.205Z,11.40
2018-05-08T04:07:09.202Z,12.30
2018-05-08T04:08:09.199Z,11.60
2018-05-08T04:09:09.194Z,11.90
2018-05-08T04:10:09.275Z,11.50
2018-05-08T04:11:09.194Z,11.80
2018-05-08T04:12:09.189Z,11.20
2018-05-08T04:13:09.185Z,11.40
2018-05-08T04:14:09.176Z,11.20
2018-05-08T04:15:09.179Z,12.10
2018-05-08T04:16:09.169Z,11.20
2018-05-08T04:17:09.165Z,11.40
2018-05-08T04:18:09.167Z,11.10
2018-05-08T04:19:09.162Z,10.50
2018-05-08T04:20:09.153Z,10.90
2018-05-08T04:21:09.217Z,11.00
2018-05-08T04:22:09.150Z,11.10
2018-05-08T04:23:09.152Z,10.90
2018-05-08T04:24:09.144Z,11.00
2018-05-08T04:25:09.139Z,11.60
2018-05-08T04:26:09.132Z,12.40
2018-05-08T04:27:09.128Z,11.30
2018-05-08T04:28:09.129Z,11.70
2018-05-08T04:29:09.120Z,12.00
2018-05-08T04:30:09.121Z,11.20
2018-05-08T04:31:09.118Z,11.60
2018-05-08T04:32:09.115Z,10.90
2018-05-08T04:33:09.110Z,11.90
2018-05-08T04:34:09.108Z,11.90
2018-05-08T04:35:09.099Z,11.60
2018-05-08T04:36:09.100Z,11.50
2018-05-08T04:37:09.096Z,11.40
2018-05-08T04:38:09.088Z,11.30
2018-05-08T04:39:09.087Z,11.60
2018-05-08T04:40:09.082Z,11.60
2018-05-08T04:41:09.078Z,11.40
2018-05-08T04:42:09.081Z,11.50
2018-05-08T04:43:09.078Z,11.80
2018-05-08T04:44:09.075Z,11.80
2018-05-08T04:45:09.072Z,11.60
2018-05-08T04:46:09.065Z,12.20
2018-05-08T04:47:09.064Z,12.00
2018-05-08T04:48:09.067Z,12.10
2018-05-08T04:49:09.059Z,12.10
2018-05-08T04:50:09.061Z,12.60
2018-05-08T04:51:09.061Z,11.90
2018-05-08T04:52:09.056Z,12.30
2018-05-08T04:53:09.053Z,12.50
2018-05-08T04:54:09.057Z,11.70
2018-05-08T04:55:09.056Z,11.80
2018-05-08T04:56:09.057Z,11.60
2018-05-08T04:57:09.055Z,11.40
2018-05-08T04:58:09.050Z,12.60
2018-05-08T04:59:09.051Z,12.40
2018-05-08T05:00:09.050Z,12.90
2018-05-08T05:01:09.049Z,12.10
2018-05-08T05:02:09.055Z,12.00
2018-05-08T05:03:09.055Z,12.30
2018-05-08T05:04:09.058Z,12.40
2018-05-08T05:05:09.058Z,12.40
2018-05-08T05:06:09.054Z,12.80
2018-05-08T05:07:09.055Z,12.60
2018-05-08T05:08:09.062Z,13.50
2018-05-08T05:09:09.069Z,13.00
2018-05-08T05:10:09.059Z,12.80
2018-05-08T05:11:09.082Z,13.20
2018-05-08T05:12:09.064Z,13.60
2018-05-08T05:13:09.065Z,17.90
2018-05-08T05:14:09.072Z,24.20
2018-05-08T05:15:09.074Z,25.90
2018-05-08T05:16:09.077Z,27.40
2018-05-08T05:17:09.079Z,24.20
2018-05-08T05:18:09.082Z,22.80
2018-05-08T05:19:09.081Z,27.10
2018-05-08T05:20:09.086Z,29.50
2018-05-08T05:21:09.088Z,27.60
2018-05-08T05:22:09.096Z,27.90
2018-05-08T05:23:09.100Z,34.00
2018-05-08T05:24:09.099Z,90.10
2018-05-08T05:25:09.103Z,189.70
2018-05-08T05:26:09.115Z,106.20
2018-05-08T05:27:09.115Z,30.40
2018-05-08T05:28:09.119Z,15.80
2018-05-08T05:29:09.123Z,14.30
2018-05-08T05:30:09.123Z,13.80
2018-05-08T05:31:09.128Z,13.20
2018-05-08T05:32:09.133Z,12.30
2018-05-08T05:33:09.137Z,12.60
2018-05-08T05:34:09.147Z,11.70
2018-05-08T05:35:09.153Z,11.50
2018-05-08T05:36:09.158Z,11.00
2018-05-08T05:37:09.163Z,10.00
2018-05-08T05:38:09.164Z,10.50
2018-05-08T05:39:09.170Z,11.40
2018-05-08T05:40:09.180Z,10.30
2018-05-08T05:41:09.186Z,10.60
2018-05-08T05:42:09.187Z,10.20
2018-05-08T05:43:09.198Z,10.20
2018-05-08T05:44:09.204Z,9.30
2018-05-08T05:45:09.206Z,9.50
2018-05-08T05:46:09.217Z,9.50
2018-05-08T05:47:09.224Z,10.70
2018-05-08T05:48:09.230Z,8.90
2018-05-08T05:49:09.239Z,9.10
2018-05-08T05:50:09.238Z,9.70
2018-05-08T05:51:09.246Z,9.40
2018-05-08T05:52:09.253Z,9.70
2018-05-08T05:53:09.261Z,9.30
2018-05-08T05:54:09.273Z,9.20
2018-05-08T05:55:09.280Z,8.80
2018-05-08T05:56:09.282Z,8.80
2018-05-08T05:57:09.293Z,9.70
2018-05-08T05:58:09.305Z,9.30
2018-05-08T05:59:09.311Z,8.80
2018-05-08T06:00:09.405Z,9.10
2018-05-08T06:01:09.325Z,8.40
2018-05-08T06:02:09.329Z,8.20
2018-05-08T06:03:09.339Z,9.90
2018-05-08T06:04:09.346Z,8.50
2018-05-08T06:05:09.354Z,9.30
2018-05-08T06:06:09.368Z,9.50
2018-05-08T06:07:09.378Z,10.10
2018-05-08T06:08:09.384Z,9.40
2018-05-08T06:09:09.398Z,10.30
2018-05-08T06:10:09.397Z,10.50
2018-05-08T06:11:09.406Z,8.80
2018-05-08T06:12:09.420Z,8.30
2018-05-08T06:13:09.429Z,8.20
2018-05-08T06:14:09.434Z,8.50
2018-05-08T06:15:09.443Z,9.00
2018-05-08T06:16:09.453Z,8.40
2018-05-08T06:17:09.462Z,7.80
2018-05-08T06:18:09.476Z,8.00
2018-05-08T06:19:09.488Z,7.90
2018-05-08T06:20:09.497Z,8.20
2018-05-08T06:21:09.506Z,7.60
2018-05-08T06:22:09.512Z,9.30
2018-05-08T06:23:09.523Z,9.60
2018-05-08T06:24:09.533Z,8.00
2018-05-08T06:25:09.543Z,7.20
2018-05-08T06:26:09.558Z,9.30
2018-05-08T06:27:09.569Z,6.50
2018-05-08T06:28:09.576Z,8.10
2018-05-08T06:29:09.586Z,8.30
2018-05-08T06:30:09.605Z,10.30
2018-05-08T06:31:09.630Z,11.90
2018-05-08T06:32:09.627Z,7.70
2018-05-08T06:33:09.635Z,9.00
2018-05-08T06:34:09.643Z,9.20
2018-05-08T06:35:09.653Z,6.70
2018-05-08T06:36:09.666Z,6.60
2018-05-08T06:37:09.677Z,9.30
2018-05-08T06:38:09.692Z,6.50
2018-05-08T06:39:09.704Z,8.60
2018-05-08T06:40:09.783Z,5.90
2018-05-08T06:41:09.728Z,7.90
2018-05-08T06:42:09.736Z,13.90
2018-05-08T06:43:09.748Z,7.60
2018-05-08T06:44:09.771Z,6.00
2018-05-08T06:45:09.777Z,7.70
2018-05-08T06:46:09.785Z,6.10
2018-05-08T06:47:09.799Z,9.40
2018-05-08T06:48:09.812Z,6.50
2018-05-08T06:49:09.825Z,9.80
2018-05-08T06:50:09.843Z,10.60
2018-05-08T06:51:09.855Z,12.10
2018-05-08T06:52:09.870Z,30.80
2018-05-08T06:53:09.883Z,175.50
2018-05-08T06:54:09.891Z,53.60
2018-05-08T06:55:09.904Z,51.40
2018-05-08T06:56:09.919Z,106.90
2018-05-08T06:57:09.932Z,529.10
2018-05-08T06:58:09.950Z,1999.90
2018-05-08T06:59:09.966Z,1999.90
2018-05-08T07:00:09.975Z,1999.90
2018-05-08T07:01:09.992Z,1999.90
2018-05-08T07:02:10.009Z,1999.90
2018-05-08T07:03:10.023Z,1999.90
2018-05-08T07:04:10.039Z,1999.90
2018-05-08T07:05:10.051Z,1999.90
2018-05-08T07:06:10.063Z,1999.90
2018-05-08T07:07:10.077Z,566.50
2018-05-08T07:08:10.093Z,174.60
2018-05-08T07:09:10.111Z,493.60
2018-05-08T07:10:10.132Z,536.40
2018-05-08T07:11:10.147Z,1077.50
2018-05-08T07:12:10.158Z,1459.00
2018-05-08T07:13:10.173Z,1999.90
2018-05-08T07:14:10.185Z,1300.50
2018-05-08T07:15:10.202Z,1038.90
2018-05-08T07:16:10.421Z,1100.80
2018-05-08T07:17:10.237Z,1999.90
2018-05-08T07:18:10.247Z,1999.90
2018-05-08T07:19:10.264Z,1999.90
2018-05-08T07:20:10.279Z,1999.90
2018-05-08T07:21:10.296Z,1999.90
2018-05-08T07:22:10.317Z,1999.90
2018-05-08T07:23:10.336Z,1999.90
2018-05-08T07:24:10.351Z,1999.90
2018-05-08T07:25:10.365Z,1999.90
2018-05-08T07:26:10.376Z,1999.90
2018-05-08T07:27:10.394Z,1999.90
2018-05-08T07:28:10.410Z,1999.90
2018-05-08T07:29:10.429Z,1999.90
2018-05-08T07:30:10.446Z,1999.90
2018-05-08T07:31:10.465Z,1999.90
2018-05-08T07:32:10.476Z,1844.00
2018-05-08T07:33:10.492Z,1999.90
2018-05-08T07:34:10.513Z,1999.90
2018-05-08T07:35:10.571Z,1999.90
2018-05-08T07:36:10.553Z,1999.90
2018-05-08T07:37:10.563Z,1999.90
2018-05-08T07:38:10.583Z,1999.90
2018-05-08T07:39:10.593Z,1999.90
2018-05-08T07:40:10.610Z,1999.90
2018-05-08T07:41:10.626Z,1657.00
2018-05-08T07:42:10.646Z,1331.50
2018-05-08T07:43:10.673Z,1210.80
2018-05-08T07:44:10.680Z,1113.90
2018-05-08T07:45:10.694Z,1222.50
2018-05-08T07:46:10.707Z,793.60
2018-05-08T07:47:10.723Z,363.20
2018-05-08T07:48:10.744Z,360.80
2018-05-08T07:49:10.760Z,368.20
2018-05-08T07:50:10.775Z,187.10
2018-05-08T07:51:10.788Z,1999.90
2018-05-08T07:52:10.806Z,1970.90
2018-05-08T07:53:10.821Z,1999.90
2018-05-08T07:54:10.842Z,1999.90
2018-05-08T07:55:10.858Z,1999.90
2018-05-08T07:56:10.876Z,1999.90
2018-05-08T07:57:10.897Z,1999.90
2018-05-08T07:58:10.904Z,1999.90
2018-05-08T07:59:10.923Z,1999.90
2018-05-08T08:00:10.938Z,1999.90
2018-05-08T08:01:10.955Z,1999.90
2018-05-08T08:02:10.976Z,1999.90
2018-05-08T08:03:10.993Z,1999.90
2018-05-08T08:04:11.006Z,1999.90
2018-05-08T08:05:11.024Z,1336.80
2018-05-08T08:06:11.045Z,621.40
2018-05-08T08:07:11.063Z,150.70
2018-05-08T08:08:11.082Z,98.30
2018-05-08T08:09:11.102Z,4.40
2018-05-08T08:10:11.111Z,3.10
2018-05-08T08:11:11.136Z,35.00
2018-05-08T08:12:11.148Z,18.20
2018-05-08T08:13:11.165Z,39.80
2018-05-08T08:14:11.188Z,54.50
2018-05-08T08:15:11.214Z,20.90
2018-05-08T08:16:11.226Z,49.20
2018-05-08T08:17:11.244Z,24.80
2018-05-08T08:18:11.265Z,27.70
2018-05-08T08:19:11.277Z,562.50
2018-05-08T08:20:11.301Z,117.60
2018-05-08T08:21:11.320Z,178.00
2018-05-08T08:22:11.332Z,178.10
2018-05-08T08:23:11.353Z,44.20
2018-05-08T08:24:11.371Z,62.40
2018-05-08T08:25:11.389Z,3.20
2018-05-08T08:26:11.412Z,34.50
2018-05-08T08:27:11.433Z,10.10
2018-05-08T08:28:11.450Z,4.80
2018-05-08T08:29:11.467Z,2.90
2018-05-08T08:30:11.488Z,2.60
2018-05-08T08:31:11.499Z,2.40
2018-05-08T08:32:11.518Z,2.50
2018-05-08T08:33:11.536Z,2.30
2018-05-08T08:34:11.561Z,3.20
2018-05-08T08:35:11.577Z,2.60
2018-05-08T08:36:11.592Z,2.70
2018-05-08T08:37:11.611Z,25.10
2018-05-08T08:38:11.634Z,2.70
2018-05-08T08:39:11.653Z,2.70
2018-05-08T08:40:11.673Z,2.40
2018-05-08T08:41:11.690Z,3.20
2018-05-08T08:42:11.705Z,3.70
2018-05-08T08:43:11.725Z,2.50
2018-05-08T08:44:11.745Z,2.60
2018-05-08T08:45:11.764Z,2.50
2018-05-08T08:46:11.788Z,2.60
2018-05-08T08:47:11.808Z,2.40
2018-05-08T08:48:11.831Z,2.50
2018-05-08T08:49:11.849Z,2.70
2018-05-08T08:50:11.866Z,2.30
2018-05-08T08:51:11.892Z,2.60
2018-05-08T08:52:11.911Z,4.50
2018-05-08T08:53:11.936Z,3.70
2018-05-08T08:54:11.950Z,3.30
2018-05-08T08:55:11.968Z,2.50
2018-05-08T08:56:11.989Z,2.50
2018-05-08T08:57:12.009Z,4.10
2018-05-08T08:58:12.034Z,2.40
2018-05-08T08:59:12.054Z,2.60
2018-05-08T09:00:12.076Z,2.70
2018-05-08T09:01:12.095Z,19.70
2018-05-08T09:02:12.112Z,2.90
2018-05-08T09:03:12.133Z,2.60
2018-05-08T09:04:12.154Z,2.60
2018-05-08T09:05:12.174Z,2.40
2018-05-08T09:06:12.201Z,2.50
2018-05-08T09:07:12.221Z,4.20
2018-05-08T09:08:12.243Z,2.80
2018-05-08T09:09:12.257Z,17.90
2018-05-08T09:10:12.283Z,2.70
2018-05-08T09:11:12.351Z,2.90
2018-05-08T09:12:12.325Z,2.80
2018-05-08T09:13:12.351Z,2.80
2018-05-08T09:14:12.364Z,3.10
2018-05-08T09:15:12.384Z,19.00
2018-05-08T09:16:12.404Z,4.00
2018-05-08T09:17:12.425Z,3.00
2018-05-08T09:18:12.459Z,2.90
2018-05-08T09:19:12.472Z,2.70
2018-05-08T09:20:12.493Z,3.60
2018-05-08T09:21:12.513Z,2.80
2018-05-08T09:22:12.532Z,3.10
2018-05-08T09:23:12.552Z,3.30
2018-05-08T09:24:12.578Z,3.00
2018-05-08T09:25:12.598Z,3.00
2018-05-08T09:26:12.615Z,3.30
2018-05-08T09:27:12.635Z,2.80
2018-05-08T09:28:12.660Z,3.00
2018-05-08T09:29:12.683Z,2.90
2018-05-08T09:30:12.705Z,2.90
2018-05-08T09:31:12.724Z,2.70
2018-05-08T09:32:12.744Z,2.90
2018-05-08T09:33:12.765Z,3.10
2018-05-08T09:34:12.783Z,3.50
2018-05-08T09:35:12.801Z,3.30
2018-05-08T09:36:12.821Z,3.00
2018-05-08T09:37:12.841Z,3.00
2018-05-08T09:38:12.866Z,3.30
2018-05-08T09:39:12.888Z,5.20
2018-05-08T09:40:12.907Z,3.00
2018-05-08T09:41:12.924Z,3.10
2018-05-08T09:42:12.949Z,2.90
2018-05-08T09:43:12.969Z,3.10
2018-05-08T09:44:12.991Z,3.10
2018-05-08T09:45:13.012Z,2.80
2018-05-08T09:46:13.029Z,2.90
2018-05-08T09:47:13.049Z,2.90
2018-05-08T09:48:13.071Z,3.00
2018-05-08T09:49:13.152Z,3.50
2018-05-08T09:50:13.125Z,3.20
2018-05-08T09:51:13.135Z,3.30
2018-05-08T09:52:13.158Z,3.70
2018-05-08T09:53:13.175Z,2.70
2018-05-08T09:54:13.260Z,2.60
2018-05-08T09:55:13.212Z,3.50
2018-05-08T09:56:13.238Z,4.60
2018-05-08T09:57:13.256Z,3.20
2018-05-08T09:58:13.272Z,3.60
2018-05-08T09:59:13.300Z,3.30
2018-05-08T10:00:13.330Z,3.00
2018-05-08T10:01:13.332Z,3.30
2018-05-08T10:02:13.361Z,4.20
2018-05-08T10:03:13.379Z,3.50
2018-05-08T10:04:13.399Z,4.30
2018-05-08T10:05:13.420Z,3.00
2018-05-08T10:06:13.435Z,3.80
2018-05-08T10:07:13.455Z,3.30
2018-05-08T10:08:13.474Z,5.10
2018-05-08T10:09:13.497Z,3.20
2018-05-08T10:10:13.520Z,57.70
2018-05-08T10:11:13.538Z,3.10
2018-05-08T10:12:13.553Z,34.10
2018-05-08T10:13:13.571Z,23.60
2018-05-08T10:14:13.595Z,620.60
2018-05-08T10:15:13.615Z,41.80
2018-05-08T10:16:13.634Z,14.10
2018-05-08T10:17:13.650Z,7.40
2018-05-08T10:18:13.665Z,55.80
2018-05-08T10:19:13.686Z,37.40
2018-05-08T10:20:13.700Z,11.60
2018-05-08T10:21:13.718Z,47.70
2018-05-08T10:22:13.740Z,5.80
2018-05-08T10:23:13.759Z,5.70
2018-05-08T10:24:13.779Z,3.50
2018-05-08T10:25:13.796Z,18.70
2018-05-08T10:26:13.809Z,19.90
2018-05-08T10:27:13.828Z,7.00
2018-05-08T10:28:13.850Z,4.70
2018-05-08T10:29:13.868Z,4.90
2018-05-08T10:30:13.883Z,311.00
2018-05-08T10:31:13.906Z,19.10
2018-05-08T10:32:13.919Z,16.10
2018-05-08T10:33:13.937Z,58.80
2018-05-08T10:34:13.957Z,61.70
2018-05-08T10:35:13.975Z,57.30
2018-05-08T10:36:13.993Z,75.10
2018-05-08T10:37:14.014Z,75.80
2018-05-08T10:38:14.025Z,72.20
2018-05-08T10:39:14.046Z,251.10
2018-05-08T10:40:14.060Z,159.30
2018-05-08T10:41:14.077Z,276.60
2018-05-08T10:42:14.101Z,242.30
2018-05-08T10:43:14.118Z,356.30
2018-05-08T10:44:14.130Z,670.50
2018-05-08T10:45:14.147Z,679.80
2018-05-08T10:46:14.170Z,604.20
2018-05-08T10:47:14.187Z,912.40
2018-05-08T10:48:14.203Z,535.90
2018-05-08T10:49:14.219Z,543.50
2018-05-08T10:50:14.233Z,1437.60
2018-05-08T10:51:14.250Z,906.10
2018-05-08T10:52:14.267Z,1571.30
2018-05-08T10:53:14.283Z,977.80
2018-05-08T10:54:14.306Z,1999.90
2018-05-08T10:55:14.321Z,1999.90
2018-05-08T10:56:14.344Z,1927.80
2018-05-08T10:57:14.357Z,1999.90
2018-05-08T10:58:14.367Z,1999.90
2018-05-08T10:59:14.387Z,1999.90
2018-05-08T11:00:14.407Z,1999.90
2018-05-08T11:01:14.422Z,1999.90
2018-05-08T11:02:14.433Z,1999.90
2018-05-08T11:03:14.451Z,1999.90
2018-05-08T11:04:14.466Z,1999.90
2018-05-08T11:05:14.482Z,1999.90
2018-05-08T11:06:14.502Z,1999.90
2018-05-08T11:07:14.520Z,1999.90
2018-05-08T11:08:14.536Z,1999.90
2018-05-08T11:09:14.552Z,1999.90
2018-05-08T11:10:14.568Z,1999.90
2018-05-08T11:11:14.581Z,1999.90
2018-05-08T11:12:14.598Z,1999.90
2018-05-08T11:13:14.613Z,1999.90
2018-05-08T11:14:14.635Z,1999.90
2018-05-08T11:15:14.652Z,1999.90
2018-05-08T11:16:14.664Z,1999.90
2018-05-08T11:17:14.678Z,1999.90
2018-05-08T11:18:14.699Z,1999.90
2018-05-08T11:19:14.725Z,1999.90
2018-05-08T11:20:14.729Z,1999.90
2018-05-08T11:21:14.744Z,1999.90
2018-05-08T11:22:14.756Z,1999.90
2018-05-08T11:23:14.774Z,1999.90
2018-05-08T11:24:14.792Z,1999.90
2018-05-08T11:25:14.803Z,1999.90
2018-05-08T11:26:14.813Z,1999.90
2018-05-08T11:27:14.897Z,1999.90
2018-05-08T11:28:14.841Z,1999.90
2018-05-08T11:29:14.853Z,1999.90
2018-05-08T11:30:14.873Z,1999.90
2018-05-08T11:31:14.884Z,1999.90
2018-05-08T11:32:14.895Z,753.80
2018-05-08T11:33:14.905Z,239.00
2018-05-08T11:34:14.919Z,21.70
2018-05-08T11:35:14.933Z,13.80
2018-05-08T11:36:14.940Z,13.20
2018-05-08T11:37:14.957Z,12.40
2018-05-08T11:38:14.956Z,11.50
2018-05-08T11:39:15.036Z,12.10
2018-05-08T11:40:14.981Z,12.60
2018-05-08T11:41:14.985Z,11.60
2018-05-08T11:42:14.998Z,11.50
2018-05-08T11:43:15.007Z,11.50
2018-05-08T11:44:15.021Z,10.70
2018-05-08T11:45:15.026Z,11.30
2018-05-08T11:46:15.030Z,11.70
2018-05-08T11:47:15.037Z,12.00
2018-05-08T11:48:15.056Z,11.90
2018-05-08T11:49:15.060Z,11.80
2018-05-08T11:50:15.061Z,11.40
2018-05-08T11:51:15.071Z,12.00
2018-05-08T11:52:15.078Z,11.70
2018-05-08T11:53:15.085Z,14.30
2018-05-08T11:54:15.096Z,11.60
2018-05-08T11:55:15.104Z,11.60
2018-05-08T11:56:15.112Z,12.30
2018-05-08T11:57:15.119Z,11.70
2018-05-08T11:58:15.122Z,11.90
2018-05-08T11:59:15.129Z,11.80
2018-05-08T12:00:15.137Z,11.60
2018-05-08T12:01:15.143Z,11.40
2018-05-08T12:02:15.156Z,11.40
2018-05-08T12:03:15.162Z,11.40
2018-05-08T12:04:15.164Z,11.40
2018-05-08T12:05:15.172Z,11.70
2018-05-08T12:06:15.183Z,11.10
2018-05-08T12:07:15.194Z,11.00
2018-05-08T12:08:15.197Z,11.70
2018-05-08T12:09:15.257Z,11.20
2018-05-08T12:10:15.206Z,11.90
2018-05-08T12:11:15.213Z,11.20
2018-05-08T12:12:15.219Z,10.80
2018-05-08T12:13:15.225Z,11.20
2018-05-08T12:14:15.237Z,11.10
2018-05-08T12:15:15.243Z,10.80
2018-05-08T12:16:15.261Z,10.20
2018-05-08T12:17:15.261Z,10.40
2018-05-08T12:18:15.259Z,11.20
2018-05-08T12:19:15.265Z,12.10
2018-05-08T12:20:15.280Z,11.60
2018-05-08T12:21:15.282Z,10.20
2018-05-08T12:22:15.285Z,12.10
2018-05-08T12:23:15.291Z,11.80
2018-05-08T12:24:15.298Z,11.40
2018-05-08T12:25:15.303Z,11.60
2018-05-08T12:26:15.315Z,11.90
2018-05-08T12:27:15.328Z,12.00
2018-05-08T12:28:15.328Z,12.30
2018-05-08T12:29:15.335Z,11.80
2018-05-08T12:30:15.336Z,11.70
2018-05-08T12:31:15.344Z,11.40
2018-05-08T12:32:15.353Z,11.20
2018-05-08T12:33:15.354Z,12.00
2018-05-08T12:34:15.366Z,12.10
2018-05-08T12:35:15.372Z,12.70
2018-05-08T12:36:15.427Z,11.60
2018-05-08T12:37:15.382Z,12.00
2018-05-08T12:38:15.429Z,12.30
2018-05-08T12:39:15.397Z,13.30
2018-05-08T12:40:15.403Z,18.60
2018-05-08T12:41:15.421Z,17.70
2018-05-08T12:42:15.411Z,40.00
2018-05-08T12:43:15.417Z,62.10
2018-05-08T12:44:15.509Z,64.00
2018-05-08T12:45:15.429Z,19.10
2018-05-08T12:46:15.442Z,14.80
2018-05-08T12:47:15.448Z,32.90
2018-05-08T12:48:15.458Z,65.50
2018-05-08T12:49:15.461Z,74.10
2018-05-08T12:50:15.464Z,75.90